Time;durP1;ratioP1;P1;durP2;ratioP2;P2;SDS_P1;SDS_P2;PMS_P1;PMS_P2;Temp;Humidity;BMP_temperature;BMP_pressure;BME280_temperature;BME280_humidity;BME280_pressure;Samples;Min_cycle;Max_cycle;Signal;HPM_P1;HPM_P2
2022/12/07 00:01:15;;;;;;;8.67;5.67;;;;;;;3.16;93.61;101731.63;5032594;28;20476;-77
2022/12/07 00:03:42;;;;;;;10.47;5.33;;;;;;;3.13;93.48;101731.56;5023030;28;20013;-77
2022/12/07 00:06:10;;;;;;;8.60;5.77;;;;;;;3.11;93.73;101732.38;5032463;28;20029;-77
2022/12/07 00:08:35;;;;;;;9.33;5.97;;;;;;;3.08;93.46;101733.16;5031828;28;20051;-77
2022/12/07 00:11:03;;;;;;;8.70;5.53;;;;;;;3.04;93.61;101731.38;5031831;28;20469;-77
2022/12/07 00:13:29;;;;;;;9.03;5.13;;;;;;;3.02;93.54;101727.91;5031549;28;20040;-77
2022/12/07 00:15:54;;;;;;;10.33;5.70;;;;;;;3.00;93.65;101729.59;5026727;28;20032;-77
2022/12/07 00:18:20;;;;;;;10.83;5.50;;;;;;;2.96;93.70;101725.22;5031105;28;20471;-77
2022/12/07 00:20:45;;;;;;;8.33;5.57;;;;;;;2.94;93.71;101725.19;5030059;28;20029;-77
2022/12/07 00:23:10;;;;;;;8.93;5.53;;;;;;;2.95;93.65;101718.34;5031437;28;20059;-77
2022/12/07 00:25:35;;;;;;;8.13;5.40;;;;;;;2.92;93.97;101706.31;5029296;28;20025;-77
2022/12/07 00:28:01;;;;;;;8.00;5.70;;;;;;;2.93;93.96;101712.28;5031274;28;20041;-77
2022/12/07 00:30:26;;;;;;;8.63;5.50;;;;;;;2.91;93.77;101709.72;5030980;28;20149;-77
2022/12/07 00:32:51;;;;;;;8.17;5.87;;;;;;;2.90;93.96;101704.53;5015557;28;20057;-77
2022/12/07 00:35:16;;;;;;;9.97;5.77;;;;;;;2.88;93.99;101705.38;5038178;28;20384;-77
2022/12/07 00:37:42;;;;;;;8.80;5.70;;;;;;;2.89;94.22;101706.22;5037355;28;20104;-77
2022/12/07 00:40:07;;;;;;;9.70;6.00;;;;;;;2.88;94.06;101704.50;5035017;28;20030;-77
2022/12/07 00:42:33;;;;;;;8.33;5.70;;;;;;;2.87;94.21;101698.50;5038464;28;20064;-77
2022/12/07 00:44:58;;;;;;;8.77;5.53;;;;;;;2.85;94.23;101705.31;5037720;28;20091;-77
2022/12/07 00:47:23;;;;;;;9.17;5.93;;;;;;;2.85;94.19;101710.44;5032328;28;20025;-77
2022/12/07 00:49:48;;;;;;;8.80;5.63;;;;;;;2.84;93.95;101708.72;5038556;28;20029;-77
2022/12/07 00:52:14;;;;;;;9.40;5.80;;;;;;;2.84;94.28;101713.84;5038560;28;20038;-77
2022/12/07 00:54:40;;;;;;;9.50;6.00;;;;;;;2.83;94.23;101709.56;5030474;28;20491;-77
2022/12/07 00:57:05;;;;;;;8.60;5.87;;;;;;;2.83;94.25;101701.84;5033462;28;20376;-77
2022/12/07 00:59:30;;;;;;;9.47;5.83;;;;;;;2.84;94.10;101703.59;5038518;28;20030;-77
2022/12/07 01:01:56;;;;;;;12.10;6.60;;;;;;;2.86;94.22;101709.63;5037862;28;20111;-76
2022/12/07 01:04:21;;;;;;;8.10;5.43;;;;;;;2.86;94.20;101701.91;5038394;28;20025;-77
2022/12/07 01:06:46;;;;;;;10.10;5.90;;;;;;;2.85;94.13;101695.03;5037987;28;20396;-76
2022/12/07 01:09:11;;;;;;;10.07;6.43;;;;;;;2.83;94.36;101701.84;5038096;28;20033;-77
2022/12/07 01:11:37;;;;;;;10.67;6.37;;;;;;;2.79;94.08;101689.75;5029686;28;20038;-77
2022/12/07 01:14:02;;;;;;;9.23;5.73;;;;;;;2.79;94.14;101694.91;5023315;28;20032;-77
2022/12/07 01:16:31;;;;;;;10.40;5.83;;;;;;;2.77;94.31;101691.44;5037700;28;20029;-76
2022/12/07 01:18:57;;;;;;;11.27;5.70;;;;;;;2.75;94.28;101698.22;5038301;28;20495;-77
2022/12/07 01:21:34;;;;;;;9.87;6.10;;;;;;;2.75;94.61;101700.81;5020048;28;20018;-76
2022/12/07 01:23:59;;;;;;;7.63;5.40;;;;;;;2.75;94.67;101698.22;5030831;28;20032;-77
2022/12/07 01:26:26;;;;;;;9.67;5.80;;;;;;;2.76;94.61;101697.41;5028283;28;20403;-76
2022/12/07 01:28:54;;;;;;;7.60;5.20;;;;;;;2.76;94.33;101704.25;5034176;28;20400;-77
2022/12/07 01:31:22;;;;;;;9.73;6.07;;;;;;;2.73;94.33;101705.06;5033508;28;20064;-77
2022/12/07 01:33:51;;;;;;;9.80;5.67;;;;;;;2.71;94.27;101706.75;5037089;28;20508;-77
2022/12/07 01:36:19;;;;;;;9.20;5.77;;;;;;;2.66;94.17;101705.78;5036498;28;20037;-77
2022/12/07 01:38:45;;;;;;;9.27;6.07;;;;;;;2.62;94.02;101701.38;5037538;28;20032;-77
2022/12/07 01:41:12;;;;;;;8.97;5.83;;;;;;;2.57;94.08;101701.31;5035818;28;20105;-77
2022/12/07 01:44:18;;;;;;;10.20;6.07;;;;;;;2.57;94.05;101704.72;5038104;28;20483;-77
2022/12/07 01:46:48;;;;;;;9.27;5.10;;;;;;;2.56;94.40;101709.84;5033411;28;20542;-76
2022/12/07 01:49:31;;;;;;;8.70;5.43;;;;;;;2.55;94.41;101696.16;5034191;28;20602;-77
2022/12/07 01:52:19;;;;;;;9.93;5.80;;;;;;;2.57;94.80;101694.44;5033608;28;20025;-77
2022/12/07 01:54:47;;;;;;;8.00;5.00;;;;;;;2.62;94.67;101696.25;5035589;28;20030;-76
2022/12/07 01:57:14;;;;;;;8.03;5.20;;;;;;;2.66;94.94;101700.63;5034460;28;20048;-77
2022/12/07 01:59:41;;;;;;;8.20;5.50;;;;;;;2.69;94.97;101693.00;5033780;28;20469;-77
2022/12/07 02:02:12;;;;;;;7.93;5.00;;;;;;;2.71;95.08;101697.31;5034178;28;20045;-76
2022/12/07 02:04:37;;;;;;;9.37;5.17;;;;;;;2.73;94.90;101695.66;5034736;28;20044;-77
2022/12/07 02:07:03;;;;;;;9.17;5.00;;;;;;;2.75;95.09;101702.53;5025297;28;20021;-77
2022/12/07 02:09:29;;;;;;;8.37;5.33;;;;;;;2.74;94.94;101701.63;5034081;28;20219;-76
2022/12/07 02:11:55;;;;;;;8.03;5.27;;;;;;;2.74;94.71;101696.50;5025942;28;20345;-77
2022/12/07 02:14:21;;;;;;;9.37;4.63;;;;;;;2.72;94.62;101696.47;5023330;28;20431;-76
2022/12/07 02:16:49;;;;;;;6.90;4.87;;;;;;;2.70;94.93;101692.16;5023914;28;20476;-76
2022/12/07 02:19:44;;;;;;;7.70;4.80;;;;;;;2.69;94.78;101693.00;5020296;28;20040;-77
2022/12/07 02:22:47;;;;;;;9.70;5.50;;;;;;;2.67;94.45;101690.38;5025331;28;20044;-77
2022/12/07 02:25:33;;;;;;;6.77;4.57;;;;;;;2.63;94.30;101687.72;5027008;28;20034;-76
2022/12/07 02:28:06;;;;;;;9.07;4.60;;;;;;;2.60;94.37;101690.22;5014919;28;20054;-76
2022/12/07 02:30:38;;;;;;;8.90;4.90;;;;;;;2.56;94.34;101690.16;5029920;28;20508;-77
2022/12/07 02:33:11;;;;;;;7.13;4.60;;;;;;;2.55;94.50;101691.00;5032792;28;20041;-77
2022/12/07 02:36:23;;;;;;;7.97;4.77;;;;;;;2.53;94.52;101681.50;5034134;28;20033;-76
2022/12/07 02:39:14;;;;;;;6.22;4.15;;;;;;;2.51;94.47;101690.88;5018647;28;20072;-77
2022/12/07 02:41:49;;;;;;;8.15;4.13;;;;;;;2.49;94.35;101689.97;5024833;28;20032;-77
2022/12/07 02:44:19;;;;;;;7.57;4.57;;;;;;;2.47;94.49;101697.66;5033125;28;20477;-76
2022/12/07 02:46:54;;;;;;;7.40;3.93;;;;;;;2.43;94.34;101689.03;5034522;28;20029;-76
2022/12/07 02:49:23;;;;;;;8.03;4.77;;;;;;;2.40;94.45;101680.38;5033225;28;20033;-77
2022/12/07 02:51:48;;;;;;;6.87;4.20;;;;;;;2.39;94.35;101681.25;5033245;28;20060;-76
2022/12/07 02:54:18;;;;;;;5.80;4.03;;;;;;;2.37;94.75;101680.34;5033651;28;20477;-76
2022/12/07 02:56:43;;;;;;;7.07;4.30;;;;;;;2.36;94.52;101686.31;5034050;28;20033;-76
2022/12/07 02:59:48;;;;;;;7.07;4.03;;;;;;;2.35;94.59;101687.13;5032534;28;20091;-76
2022/12/07 03:02:18;;;;;;;5.70;4.10;;;;;;;2.34;94.77;101690.53;5022393;28;20033;-77
2022/12/07 03:05:08;;;;;;;6.33;3.83;;;;;;;2.35;95.00;101684.56;5024370;28;20029;-77
2022/12/07 03:08:01;;;;;;;7.17;4.10;;;;;;;2.37;95.02;101690.59;5033476;28;20461;-76
2022/12/07 03:11:06;;;;;;;6.00;4.10;;;;;;;2.39;95.05;101699.22;5030871;28;20034;-76
2022/12/07 03:14:13;;;;;;;6.00;4.00;;;;;;;2.42;95.06;101692.44;5018180;28;20026;-76
2022/12/07 03:16:48;;;;;;;8.67;5.00;;;;;;;2.44;94.99;101700.16;4975867;28;20062;-76
2022/12/07 03:19:17;;;;;;;5.83;4.07;;;;;;;2.46;95.21;101690.78;4976394;28;20076;-77
2022/12/07 03:21:57;;;;;;;7.40;4.40;;;;;;;2.47;95.42;101691.69;5004485;28;20038;-76
2022/12/07 03:24:27;;;;;;;6.77;4.33;;;;;;;2.49;95.42;101690.88;5014073;28;20125;-77
2022/12/07 03:27:06;;;;;;;7.00;4.50;;;;;;;2.51;95.33;101686.63;5029760;28;20116;-77
2022/12/07 03:29:36;;;;;;;7.13;4.13;;;;;;;2.51;95.21;101689.19;5025113;28;20075;-76
2022/12/07 03:32:08;;;;;;;6.97;4.30;;;;;;;2.51;95.06;101693.44;5025042;28;20040;-76
2022/12/07 03:34:47;;;;;;;6.13;4.00;;;;;;;2.50;95.01;101687.47;5024712;28;20075;-77
2022/12/07 03:37:29;;;;;;;6.43;4.10;;;;;;;2.50;95.23;101687.47;5023998;28;20036;-76
2022/12/07 03:40:22;;;;;;;8.13;4.00;;;;;;;2.50;95.18;101690.03;5020678;28;20041;-76
2022/12/07 03:42:48;;;;;;;8.57;4.40;;;;;;;2.52;95.20;101690.06;5026049;28;20483;-77
2022/12/07 03:45:15;;;;;;;6.53;3.90;;;;;;;2.55;95.16;101685.88;5000191;28;20026;-77
2022/12/07 03:47:46;;;;;;;7.13;4.33;;;;;;;2.57;95.23;101678.19;5027195;28;20026;-77
2022/12/07 03:50:21;;;;;;;7.95;4.07;;;;;;;2.63;95.56;101680.88;5031165;28;20021;-76
2022/12/07 03:52:55;;;;;;;6.23;3.83;;;;;;;2.65;95.54;101679.19;5030433;28;20424;-76
2022/12/07 03:55:30;;;;;;;7.33;3.93;;;;;;;2.69;95.58;101675.84;5028976;28;20469;-76
2022/12/07 03:57:59;;;;;;;7.57;4.13;;;;;;;2.71;95.54;101675.91;5017039;28;20026;-77
2022/12/07 04:00:25;;;;;;;6.23;3.90;;;;;;;2.74;95.61;101673.38;5024939;28;20048;-77
2022/12/07 04:02:52;;;;;;;6.83;3.90;;;;;;;2.78;95.57;101676.91;5030129;28;20028;-77
2022/12/07 04:05:18;;;;;;;6.07;3.93;;;;;;;2.78;95.64;101680.31;5029363;28;20085;-77
2022/12/07 04:07:44;;;;;;;6.80;3.93;;;;;;;2.77;95.36;101676.00;5026032;28;20017;-77
2022/12/07 04:10:10;;;;;;;6.63;3.80;;;;;;;2.80;95.56;101680.38;5030663;28;20055;-76
2022/12/07 04:12:35;;;;;;;7.50;3.63;;;;;;;2.82;95.65;101678.69;5029754;28;20037;-76
2022/12/07 04:15:00;;;;;;;5.53;3.73;;;;;;;2.83;95.54;101675.25;5013186;28;20029;-77
2022/12/07 04:17:26;;;;;;;6.23;3.80;;;;;;;2.84;95.42;101683.03;5022431;28;20040;-77
2022/12/07 04:19:51;;;;;;;5.27;3.63;;;;;;;2.86;95.56;101680.47;5025103;28;20081;-76
2022/12/07 04:22:16;;;;;;;5.90;3.67;;;;;;;2.85;95.61;101684.75;5016977;28;20488;-76
2022/12/07 04:24:41;;;;;;;6.77;3.77;;;;;;;2.84;95.25;101680.44;5031127;28;20032;-76
2022/12/07 04:27:07;;;;;;;7.87;3.50;;;;;;;2.85;95.28;101679.63;5000456;28;20036;-77
2022/12/07 04:29:32;;;;;;;6.63;3.67;;;;;;;2.84;95.18;101683.03;5029696;28;20393;-77
2022/12/07 04:31:58;;;;;;;6.37;3.93;;;;;;;2.84;95.69;101680.44;5030580;28;20029;-76
2022/12/07 04:34:23;;;;;;;6.10;3.37;;;;;;;2.87;95.04;101671.91;5020027;28;20037;-77
2022/12/07 04:36:48;;;;;;;8.43;3.60;;;;;;;2.83;95.20;101676.16;5025934;28;20041;-76
2022/12/07 04:39:20;;;;;;;5.47;3.40;;;;;;;2.83;95.12;101678.72;5030443;28;20111;-76
2022/12/07 04:41:46;;;;;;;6.00;3.60;;;;;;;2.83;95.28;101676.16;5019203;28;20072;-77
2022/12/07 04:44:14;;;;;;;5.13;3.33;;;;;;;2.83;94.88;101675.25;5019637;28;20026;-76
2022/12/07 04:46:39;;;;;;;5.87;3.53;;;;;;;2.81;94.89;101672.69;5027275;28;20049;-76
2022/12/07 04:49:04;;;;;;;5.40;3.33;;;;;;;2.81;94.80;101676.97;5024630;28;20528;-77
2022/12/07 04:51:29;;;;;;;5.13;3.53;;;;;;;2.81;94.72;101667.53;5015159;28;20083;-77
2022/12/07 04:53:55;;;;;;;5.53;3.53;;;;;;;2.80;94.75;101664.94;5031150;28;20030;-76
2022/12/07 04:56:22;;;;;;;5.83;3.30;;;;;;;2.77;94.61;101660.59;5023156;28;20389;-76
2022/12/07 04:58:49;;;;;;;6.00;3.17;;;;;;;2.75;94.65;101667.41;5017209;28;20092;-77
2022/12/07 05:01:16;;;;;;;7.40;3.40;;;;;;;2.73;94.72;101658.81;5030976;28;20021;-76
2022/12/07 05:03:41;;;;;;;7.90;3.20;;;;;;;2.71;94.79;101660.50;5031578;28;20092;-77
2022/12/07 05:06:08;;;;;;;7.50;3.20;;;;;;;2.69;94.92;101654.44;5031735;28;20034;-77
2022/12/07 05:08:34;;;;;;;6.17;3.33;;;;;;;2.65;94.51;101653.50;5031652;28;20026;-77
2022/12/07 05:11:00;;;;;;;7.40;3.23;;;;;;;2.62;94.72;101652.59;5035682;28;20095;-77
2022/12/07 05:13:26;;;;;;;6.27;3.13;;;;;;;2.60;94.69;101656.81;5052205;28;20036;-76
2022/12/07 05:15:51;;;;;;;5.30;3.20;;;;;;;2.57;94.82;101655.91;5032194;28;20041;-77
2022/12/07 05:18:17;;;;;;;6.37;3.27;;;;;;;2.56;94.72;101661.03;5027516;28;20109;-76
2022/12/07 05:20:43;;;;;;;7.00;3.70;;;;;;;2.53;94.82;101660.97;5027194;28;20447;-76
2022/12/07 05:23:09;;;;;;;6.40;3.10;;;;;;;2.52;94.62;101654.97;5035972;28;20060;-76
2022/12/07 05:25:35;;;;;;;4.73;2.93;;;;;;;2.52;94.82;101661.78;5033692;28;20061;-76
2022/12/07 05:28:00;;;;;;;4.87;3.00;;;;;;;2.52;94.90;101659.22;5034038;28;20477;-76
2022/12/07 05:30:26;;;;;;;4.97;3.00;;;;;;;2.51;94.91;101658.38;5036210;28;20120;-76
2022/12/07 05:32:51;;;;;;;3.90;2.80;;;;;;;2.52;94.61;101659.22;5034985;28;20033;-76
2022/12/07 05:35:18;;;;;;;6.33;3.17;;;;;;;2.51;94.52;101662.63;5030697;28;20064;-76
2022/12/07 05:37:44;;;;;;;5.53;2.90;;;;;;;2.49;94.78;101660.03;5033626;28;20612;-76
2022/12/07 05:40:10;;;;;;;4.93;2.90;;;;;;;2.48;94.48;101653.16;5030802;28;20457;-76
2022/12/07 05:42:35;;;;;;;5.33;3.03;;;;;;;2.47;94.71;101660.84;5030382;28;20112;-76
2022/12/07 05:45:00;;;;;;;6.07;3.00;;;;;;;2.46;94.83;101659.97;5033507;28;20108;-77
2022/12/07 05:47:25;;;;;;;6.03;2.90;;;;;;;2.45;94.90;101665.09;5021267;28;20097;-77
2022/12/07 05:49:51;;;;;;;5.53;2.87;;;;;;;2.45;94.77;101657.38;5033512;28;20045;-77
2022/12/07 05:52:16;;;;;;;5.07;2.90;;;;;;;2.44;94.49;101656.50;5029500;28;20038;-77
2022/12/07 05:54:41;;;;;;;6.73;3.00;;;;;;;2.43;94.55;101653.09;5029831;28;20025;-76
2022/12/07 05:57:07;;;;;;;6.97;3.07;;;;;;;2.45;94.75;101652.25;5029228;28;20045;-76
2022/12/07 05:59:32;;;;;;;4.70;2.90;;;;;;;2.42;94.78;101645.31;5008621;28;20519;-76
2022/12/07 06:02:01;;;;;;;5.10;2.67;;;;;;;2.39;94.48;101648.72;5029699;28;20071;-76
2022/12/07 06:04:30;;;;;;;5.87;2.90;;;;;;;2.39;94.57;101645.28;5027353;28;20026;-76
2022/12/07 06:06:55;;;;;;;5.30;3.00;;;;;;;2.37;94.59;101636.69;5033308;28;20048;-76
2022/12/07 06:09:22;;;;;;;6.10;3.17;;;;;;;2.34;94.70;101639.19;5034259;28;20102;-76
2022/12/07 06:14:31;;;;;;;4.60;3.03;;;;;;;2.32;94.82;101641.69;5033994;28;20041;-77
2022/12/07 06:16:57;;;;;;;5.33;2.90;;;;;;;2.32;94.70;101645.97;5032820;28;20037;-76
2022/12/07 06:19:23;;;;;;;4.33;3.17;;;;;;;2.30;94.61;101647.66;5033099;28;20040;-77
2022/12/07 06:21:48;;;;;;;6.50;3.20;;;;;;;2.27;94.51;101644.16;5028451;28;20037;-77
2022/12/07 06:24:16;;;;;;;6.03;3.07;;;;;;;2.26;94.49;101642.44;5031587;28;20030;-76
2022/12/07 06:26:41;;;;;;;6.87;3.13;;;;;;;2.26;94.45;101647.56;5032378;28;20159;-77
2022/12/07 06:29:07;;;;;;;5.90;3.17;;;;;;;2.25;94.54;101645.84;5034330;28;20124;-77
2022/12/07 06:31:32;;;;;;;4.93;3.27;;;;;;;2.24;94.70;101646.66;5033323;28;20030;-76
2022/12/07 06:34:02;;;;;;;7.57;3.47;;;;;;;2.23;94.82;101667.19;5033586;28;20120;-76
2022/12/07 06:36:28;;;;;;;6.10;3.83;;;;;;;2.21;94.83;101661.16;5034584;28;20036;-77
2022/12/07 06:38:53;;;;;;;5.63;3.40;;;;;;;2.19;94.74;101661.13;5033445;28;20029;-76
2022/12/07 06:41:18;;;;;;;6.47;3.63;;;;;;;2.18;94.91;101659.38;5031295;28;20507;-77
2022/12/07 06:43:44;;;;;;;5.70;3.53;;;;;;;2.18;94.63;101664.53;5032595;28;20039;-76
2022/12/07 06:46:09;;;;;;;6.37;3.53;;;;;;;2.16;94.64;101660.16;5031161;28;20353;-76
2022/12/07 06:48:34;;;;;;;5.87;3.80;;;;;;;2.15;94.69;101651.63;5024345;28;20064;-77
2022/12/07 06:50:59;;;;;;;6.17;3.50;;;;;;;2.16;94.53;101655.03;5034369;28;20026;-77
2022/12/07 06:53:25;;;;;;;5.50;3.80;;;;;;;2.16;94.76;101661.06;5032371;28;20029;-77
2022/12/07 06:55:50;;;;;;;7.53;3.70;;;;;;;2.17;94.96;101661.91;5033434;28;20042;-77
2022/12/07 06:58:16;;;;;;;7.33;3.97;;;;;;;2.18;94.97;101661.97;5032657;28;20506;-76
2022/12/07 07:00:42;;;;;;;6.20;4.07;;;;;;;2.20;95.12;101657.72;5032923;28;20022;-77
2022/12/07 07:03:07;;;;;;;6.27;3.73;;;;;;;2.20;95.00;101657.72;5033628;28;20044;-76
2022/12/07 07:05:32;;;;;;;5.70;3.67;;;;;;;2.20;95.16;101657.72;5032381;28;20037;-76
2022/12/07 07:07:58;;;;;;;6.70;4.40;;;;;;;2.20;95.06;101656.84;5032331;28;20044;-77
2022/12/07 07:10:23;;;;;;;7.00;4.40;;;;;;;2.19;95.02;101658.56;5032915;28;20436;-76
2022/12/07 07:12:48;;;;;;;6.70;3.87;;;;;;;2.19;95.11;101666.25;5033217;28;20033;-76
2022/12/07 07:15:13;;;;;;;7.43;4.30;;;;;;;2.18;94.69;101661.97;5021947;28;20234;-77
2022/12/07 07:17:39;;;;;;;8.70;4.20;;;;;;;2.19;95.03;101661.13;5028331;28;20040;-76
2022/12/07 07:20:05;;;;;;;9.67;4.63;;;;;;;2.21;94.92;101659.47;5031845;28;20021;-77
2022/12/07 07:22:30;;;;;;;6.57;4.83;;;;;;;2.23;94.83;101652.63;5033837;28;20107;-77
2022/12/07 07:24:55;;;;;;;6.80;4.60;;;;;;;2.23;94.92;101660.34;5025351;28;20420;-77
2022/12/07 07:27:21;;;;;;;7.60;4.83;;;;;;;2.26;95.03;101659.56;5029848;28;20057;-77
2022/12/07 07:29:46;;;;;;;8.27;4.57;;;;;;;2.27;95.31;101658.72;5028624;28;20045;-77
2022/12/07 07:32:12;;;;;;;11.57;6.20;;;;;;;2.28;95.36;101661.31;5033782;28;20044;-77
2022/12/07 07:34:37;;;;;;;10.23;6.13;;;;;;;2.30;95.49;101657.91;5032215;28;20531;-77
2022/12/07 07:37:02;;;;;;;9.13;5.63;;;;;;;2.31;95.12;101657.09;5033462;28;20071;-77
2022/12/07 07:39:27;;;;;;;8.10;5.63;;;;;;;2.31;95.14;101664.78;5026355;28;20032;-77
2022/12/07 07:41:53;;;;;;;7.77;4.67;;;;;;;2.32;95.19;101661.38;5013875;28;20049;-77
2022/12/07 07:44:18;;;;;;;9.83;4.70;;;;;;;2.32;95.04;101661.38;5018665;28;20104;-77
2022/12/07 07:46:43;;;;;;;8.10;4.60;;;;;;;2.30;94.94;101668.19;5016344;28;20041;-77
2022/12/07 07:49:10;;;;;;;7.67;4.50;;;;;;;2.28;94.67;101671.59;5021382;28;20021;-77
2022/12/07 07:51:35;;;;;;;8.27;4.57;;;;;;;2.23;94.80;101675.75;5033246;28;20048;-77
2022/12/07 07:54:01;;;;;;;10.17;5.67;;;;;;;2.23;94.66;101680.03;5031769;28;20030;-77
2022/12/07 07:56:26;;;;;;;21.83;9.37;;;;;;;2.23;94.69;101680.03;5033155;28;20366;-76
2022/12/07 07:58:52;;;;;;;19.97;8.80;;;;;;;2.22;94.79;101679.13;5013876;28;20428;-77
2022/12/07 08:01:19;;;;;;;12.33;6.53;;;;;;;2.23;94.79;101668.03;5031544;28;20025;-77
2022/12/07 08:03:45;;;;;;;11.53;6.30;;;;;;;2.26;95.04;101678.38;5014799;28;20018;-77
2022/12/07 08:06:10;;;;;;;12.70;5.37;;;;;;;2.28;94.43;101676.72;5029467;28;20087;-77
2022/12/07 08:08:36;;;;;;;8.63;5.03;;;;;;;2.31;94.97;101672.50;5026599;28;20112;-77
2022/12/07 08:11:05;;;;;;;7.90;4.73;;;;;;;2.34;94.92;101670.00;5021403;28;20094;-77
2022/12/07 08:13:30;;;;;;;8.83;4.90;;;;;;;2.35;95.23;101666.59;5019267;28;20030;-77
2022/12/07 08:15:55;;;;;;;7.50;4.40;;;;;;;2.38;95.13;101672.66;5019111;28;20036;-77
2022/12/07 08:18:21;;;;;;;7.20;4.50;;;;;;;2.41;95.39;101667.59;5019553;28;20069;-77
2022/12/07 08:20:46;;;;;;;9.40;4.53;;;;;;;2.46;95.42;101670.25;5026912;28;20040;-76
2022/12/07 08:23:11;;;;;;;9.53;5.60;;;;;;;2.49;95.37;101672.00;5015394;28;20496;-77
2022/12/07 08:25:37;;;;;;;11.30;6.27;;;;;;;2.50;95.38;101672.06;5012715;28;20022;-76
2022/12/07 08:28:02;;;;;;;11.73;6.43;;;;;;;2.53;95.36;101682.41;5018630;28;20100;-77
2022/12/07 08:30:29;;;;;;;9.47;5.43;;;;;;;2.57;95.34;101681.59;5017371;28;20473;-77
2022/12/07 08:32:55;;;;;;;8.37;4.77;;;;;;;2.62;95.09;101678.28;5029088;28;20051;-77
2022/12/07 08:35:20;;;;;;;9.47;4.53;;;;;;;2.64;94.76;101681.75;5027642;28;20029;-77
2022/12/07 08:37:46;;;;;;;7.70;4.43;;;;;;;2.65;94.97;101681.75;5027607;28;20475;-77
2022/12/07 08:40:15;;;;;;;8.53;4.30;;;;;;;2.68;94.56;101686.97;5026243;28;20072;-77
2022/12/07 08:42:44;;;;;;;7.40;3.70;;;;;;;2.71;94.97;101693.91;5023532;28;20030;-77
2022/12/07 08:45:12;;;;;;;6.63;4.00;;;;;;;2.72;94.66;101691.34;5026441;28;20044;-77
2022/12/07 08:47:43;;;;;;;9.20;4.17;;;;;;;2.72;94.83;101686.22;5028872;28;20491;-77
2022/12/07 08:50:11;;;;;;;7.30;3.83;;;;;;;2.75;94.75;101692.25;5029557;28;20029;-77
2022/12/07 08:52:37;;;;;;;6.47;4.23;;;;;;;2.75;94.72;101690.53;5027601;28;20096;-77
2022/12/07 08:55:04;;;;;;;9.10;5.23;;;;;;;2.74;94.41;101691.38;5032942;28;20064;-77
2022/12/07 08:57:29;;;;;;;9.33;5.03;;;;;;;2.75;94.93;101685.38;5024888;28;20043;-77
2022/12/07 08:59:55;;;;;;;7.90;4.70;;;;;;;2.75;94.42;101690.53;5033193;28;20104;-77
2022/12/07 09:02:20;;;;;;;5.97;4.20;;;;;;;2.75;94.53;101692.25;5026550;28;20060;-77
2022/12/07 09:04:46;;;;;;;7.67;4.30;;;;;;;2.74;94.58;101686.22;5034479;28;20183;-77
2022/12/07 09:07:11;;;;;;;7.17;3.90;;;;;;;2.75;94.56;101690.53;5034757;28;20492;-77
2022/12/07 09:09:36;;;;;;;16.07;7.97;;;;;;;2.75;94.51;101682.81;5034481;28;20029;-77
2022/12/07 09:12:02;;;;;;;16.73;9.23;;;;;;;2.80;94.63;101685.50;5030426;28;20021;-77
2022/12/07 09:14:27;;;;;;;16.77;7.43;;;;;;;2.83;94.99;101676.16;5026884;28;20032;-77
2022/12/07 09:16:53;;;;;;;13.37;6.77;;;;;;;2.87;94.71;101685.66;5031713;28;20112;-77
2022/12/07 09:19:18;;;;;;;13.80;5.37;;;;;;;2.92;94.54;101683.16;5026335;28;20029;-77
2022/12/07 09:21:43;;;;;;;9.60;5.33;;;;;;;2.95;94.79;101679.78;5030722;28;20377;-77
2022/12/07 09:24:09;;;;;;;7.97;4.50;;;;;;;3.00;94.61;101681.59;5024222;28;20388;-77
2022/12/07 09:26:35;;;;;;;7.03;4.07;;;;;;;3.07;94.46;101689.44;5018598;28;20104;-77
2022/12/07 09:29:01;;;;;;;7.03;3.70;;;;;;;3.12;94.57;101686.13;5028400;28;20053;-77
2022/12/07 09:31:26;;;;;;;8.23;3.53;;;;;;;3.15;94.13;101687.91;5028382;28;20823;-77
2022/12/07 09:33:59;;;;;;;6.73;3.73;;;;;;;3.19;94.15;101685.41;5027922;28;20025;-77
2022/12/07 09:36:26;;;;;;;9.17;3.80;;;;;;;3.19;94.03;101685.41;5028949;28;20064;-77
2022/12/07 09:38:51;;;;;;;6.60;3.40;;;;;;;3.21;94.10;101687.13;5029786;28;20017;-77
2022/12/07 09:41:17;;;;;;;7.27;3.60;;;;;;;3.21;94.12;101687.13;5029026;28;20021;-77
2022/12/07 09:43:43;;;;;;;5.33;3.40;;;;;;;3.23;93.98;101688.03;5027362;28;20493;-76
2022/12/07 09:46:14;;;;;;;6.10;3.10;;;;;;;3.26;93.83;101685.50;5028968;28;20025;-77
2022/12/07 09:48:42;;;;;;;4.95;2.67;;;;;;;3.29;94.23;101693.28;5026975;28;20148;-77
2022/12/07 09:51:15;;;;;;;7.10;3.27;;;;;;;3.32;93.78;101677.91;5027446;28;20045;-76
2022/12/07 09:53:42;;;;;;;4.53;3.00;;;;;;;3.33;94.26;101677.91;5028506;28;20552;-77
2022/12/07 09:56:13;;;;;;;6.67;3.37;;;;;;;3.36;93.96;101678.81;5026020;28;20400;-77
2022/12/07 09:58:38;;;;;;;10.55;4.78;;;;;;;3.38;93.83;101675.44;5028858;28;20060;-76
2022/12/07 10:01:14;;;;;;;10.43;5.47;;;;;;;3.42;93.67;101677.22;5029079;28;20045;-77
2022/12/07 10:03:48;;;;;;;12.87;6.33;;;;;;;3.41;93.67;101680.66;5027213;28;20076;-77
2022/12/07 10:06:14;;;;;;;9.60;5.27;;;;;;;3.42;93.40;101676.34;5021613;28;20018;-77
2022/12/07 10:08:41;;;;;;;8.93;4.57;;;;;;;3.43;93.35;101678.09;5029664;28;20022;-77
2022/12/07 10:11:10;;;;;;;9.40;4.00;;;;;;;3.45;93.61;101671.28;5026196;28;20708;-77
2022/12/07 10:13:46;;;;;;;6.50;4.00;;;;;;;3.49;93.44;101663.63;5020595;28;20107;-77
2022/12/07 10:16:41;;;;;;;5.73;3.23;;;;;;;3.54;93.60;101670.56;5028208;28;20028;-77
2022/12/07 10:19:24;;;;;;;6.63;2.90;;;;;;;3.59;93.19;101666.34;5030861;28;20033;-77
2022/12/07 10:22:11;;;;;;;6.30;2.90;;;;;;;3.63;93.42;101665.56;5029106;28;20017;-77
2022/12/07 10:24:39;;;;;;;6.17;3.30;;;;;;;3.67;93.49;101666.50;5024391;28;20033;-77
2022/12/07 10:27:05;;;;;;;7.30;3.43;;;;;;;3.68;93.34;101658.78;5026279;28;20047;-77
2022/12/07 10:29:39;;;;;;;4.90;2.90;;;;;;;3.72;93.10;101660.56;5026459;28;20103;-77
2022/12/07 10:32:15;;;;;;;5.10;2.90;;;;;;;3.76;93.33;101654.59;5030124;28;20035;-77
2022/12/07 10:34:41;;;;;;;10.70;5.13;;;;;;;3.80;93.20;101656.41;5026508;28;20060;-76
2022/12/07 10:37:27;;;;;;;12.13;4.87;;;;;;;3.87;92.53;101648.78;5026085;28;20238;-77
2022/12/07 10:39:55;;;;;;;8.50;4.27;;;;;;;3.94;92.66;101651.47;5027455;28;20029;-77
2022/12/07 10:42:23;;;;;;;7.10;4.00;;;;;;;4.06;92.88;101645.63;5027062;28;20030;-77
2022/12/07 10:45:03;;;;;;;6.17;3.10;;;;;;;4.20;92.45;101642.38;5025813;28;20039;-77
2022/12/07 10:47:54;;;;;;;6.00;3.10;;;;;;;4.34;92.95;101638.28;5024596;28;21210;-77
2022/12/07 10:50:35;;;;;;;4.90;2.60;;;;;;;4.36;92.22;101636.59;5019630;28;20033;-77
2022/12/07 10:53:38;;;;;;;6.50;2.30;;;;;;;4.43;91.75;101639.25;5030144;28;20112;-77
2022/12/07 10:56:27;;;;;;;6.77;2.60;;;;;;;4.46;90.70;101639.25;5025183;28;20076;-77
2022/12/07 10:59:14;;;;;;;7.40;3.00;;;;;;;4.47;90.43;101636.72;5033358;28;20052;-77
2022/12/07 11:01:50;;;;;;;5.03;2.43;;;;;;;4.49;90.96;101623.84;5018934;28;20029;-77
2022/12/07 11:04:40;;;;;;;4.70;2.33;;;;;;;4.55;90.39;101629.09;5029538;28;20400;-77
2022/12/07 11:07:20;;;;;;;5.97;2.47;;;;;;;4.59;89.66;101628.28;5027295;28;20028;-77
2022/12/07 11:10:01;;;;;;;3.40;1.80;;;;;;;4.64;90.78;101621.44;5027219;28;20504;-77
2022/12/07 11:12:50;;;;;;;5.80;2.33;;;;;;;4.71;90.54;101607.78;5025413;28;20034;-77
2022/12/07 11:15:43;;;;;;;11.27;3.90;;;;;;;4.76;89.57;101613.00;5024768;28;20110;-77
2022/12/07 11:18:16;;;;;;;9.67;3.47;;;;;;;4.83;89.51;101608.75;5023984;28;20043;-77
2022/12/07 11:21:10;;;;;;;8.23;3.53;;;;;;;4.86;89.04;101611.38;5025840;28;20468;-77
2022/12/07 11:24:15;;;;;;;11.02;3.50;;;;;;;4.93;89.13;101610.59;5026498;28;20033;-77
2022/12/07 11:27:00;;;;;;;5.38;2.45;;;;;;;4.94;89.20;101599.44;5024685;28;20080;-77
2022/12/07 11:29:43;;;;;;;6.75;2.53;;;;;;;5.02;89.73;101599.50;5026137;28;20075;-77
2022/12/07 11:32:35;;;;;;;4.43;2.10;;;;;;;5.03;88.83;101600.38;5024323;28;20029;-77
2022/12/07 11:35:38;;;;;;;4.73;2.40;;;;;;;5.06;88.73;101588.34;5023824;28;20030;-77
2022/12/07 11:38:26;;;;;;;4.85;1.88;;;;;;;5.09;88.98;101584.97;5026399;28;20499;-77
2022/12/07 11:40:55;;;;;;;7.80;2.30;;;;;;;5.09;88.32;101588.38;5025848;28;20268;-77
2022/12/07 11:43:34;;;;;;;4.03;1.85;;;;;;;5.08;88.16;101578.91;5025472;28;20037;-77
2022/12/07 11:46:05;;;;;;;7.55;2.22;;;;;;;5.09;88.65;101574.66;5023812;28;20387;-77
2022/12/07 11:48:46;;;;;;;5.68;2.20;;;;;;;5.09;87.61;101574.66;5027648;28;20033;-77